sensor_id;sensor_type;location;lat;lon;timestamp;P1;durP1;ratioP1;P2;durP2;ratioP2
35679;SDS011;21803;53.586;10.040;2023-07-29T04:01:36;1.55;;;1.20;;
35679;SDS011;21803;53.586;10.040;2023-07-29T04:04:01;1.58;;;1.20;;
35679;SDS011;21803;53.586;10.040;2023-07-29T04:06:27;1.30;;;1.20;;
35679;SDS011;21803;53.586;10.040;2023-07-29T04:08:53;1.13;;;1.02;;
35679;SDS011;21803;53.586;10.040;2023-07-29T04:11:18;1.20;;;1.10;;
35679;SDS011;21803;53.586;10.040;2023-07-29T04:13:44;1.40;;;1.15;;
35679;SDS011;21803;53.586;10.040;2023-07-29T04:16:09;1.20;;;1.00;;
35679;SDS011;21803;53.586;10.040;2023-07-29T04:18:35;1.08;;;0.98;;
35679;SDS011;21803;53.586;10.040;2023-07-29T04:21:00;1.60;;;1.20;;
35679;SDS011;21803;53.586;10.040;2023-07-29T04:23:26;1.27;;;1.15;;
35679;SDS011;21803;53.586;10.040;2023-07-29T04:25:51;1.38;;;1.10;;
35679;SDS011;21803;53.586;10.040;2023-07-29T04:28:17;1.48;;;1.30;;
35679;SDS011;21803;53.586;10.040;2023-07-29T04:30:42;1.60;;;1.17;;
35679;SDS011;21803;53.586;10.040;2023-07-29T04:33:08;1.55;;;1.10;;
35679;SDS011;21803;53.586;10.040;2023-07-29T04:35:33;1.10;;;1.00;;
35679;SDS011;21803;53.586;10.040;2023-07-29T04:37:59;1.45;;;1.20;;
35679;SDS011;21803;53.586;10.040;2023-07-29T04:40:24;1.20;;;1.10;;
35679;SDS011;21803;53.586;10.040;2023-07-29T04:42:50;1.20;;;1.10;;
35679;SDS011;21803;53.586;10.040;2023-07-29T04:45:16;1.60;;;1.10;;
35679;SDS011;21803;53.586;10.040;2023-07-29T04:47:42;1.73;;;1.30;;
35679;SDS011;21803;53.586;10.040;2023-07-29T04:50:07;1.98;;;1.20;;
35679;SDS011;21803;53.586;10.040;2023-07-29T04:52:33;1.33;;;1.10;;
35679;SDS011;21803;53.586;10.040;2023-07-29T04:54:59;1.40;;;1.20;;
35679;SDS011;21803;53.586;10.040;2023-07-29T04:57:24;1.17;;;1.02;;
35679;SDS011;21803;53.586;10.040;2023-07-29T04:59:50;1.40;;;1.10;;
35679;SDS011;21803;53.586;10.040;2023-07-29T05:02:15;1.40;;;1.30;;
35679;SDS011;21803;53.586;10.040;2023-07-29T05:04:41;1.55;;;1.13;;
35679;SDS011;21803;53.586;10.040;2023-07-29T05:07:06;1.75;;;1.20;;
35679;SDS011;21803;53.586;10.040;2023-07-29T05:09:32;1.38;;;1.27;;
35679;SDS011;21803;53.586;10.040;2023-07-29T05:11:57;1.30;;;1.17;;
35679;SDS011;21803;53.586;10.040;2023-07-29T05:14:23;1.40;;;1.30;;
35679;SDS011;21803;53.586;10.040;2023-07-29T05:16:48;1.20;;;1.10;;
35679;SDS011;21803;53.586;10.040;2023-07-29T05:19:14;1.25;;;1.15;;
35679;SDS011;21803;53.586;10.040;2023-07-29T05:21:40;1.20;;;1.10;;
35679;SDS011;21803;53.586;10.040;2023-07-29T05:24:05;1.58;;;1.15;;
35679;SDS011;21803;53.586;10.040;2023-07-29T05:26:31;1.15;;;1.05;;
35679;SDS011;21803;53.586;10.040;2023-07-29T05:28:56;1.35;;;1.20;;
35679;SDS011;21803;53.586;10.040;2023-07-29T05:31:22;2.15;;;1.33;;
35679;SDS011;21803;53.586;10.040;2023-07-29T05:33:48;2.08;;;1.40;;
35679;SDS011;21803;53.586;10.040;2023-07-29T05:36:13;1.40;;;1.30;;
35679;SDS011;21803;53.586;10.040;2023-07-29T05:38:39;1.30;;;1.20;;
35679;SDS011;21803;53.586;10.040;2023-07-29T05:41:04;1.30;;;1.20;;
35679;SDS011;21803;53.586;10.040;2023-07-29T05:43:30;1.63;;;1.33;;
35679;SDS011;21803;53.586;10.040;2023-07-29T05:45:55;1.38;;;1.27;;
35679;SDS011;21803;53.586;10.040;2023-07-29T05:48:21;1.27;;;1.10;;
35679;SDS011;21803;53.586;10.040;2023-07-29T05:50:47;1.42;;;1.33;;
35679;SDS011;21803;53.586;10.040;2023-07-29T05:53:13;1.38;;;1.27;;
35679;SDS011;21803;53.586;10.040;2023-07-29T05:55:39;1.27;;;1.17;;
35679;SDS011;21803;53.586;10.040;2023-07-29T05:58:05;1.23;;;1.08;;
35679;SDS011;21803;53.586;10.040;2023-07-29T06:00:30;1.30;;;1.20;;
35679;SDS011;21803;53.586;10.040;2023-07-29T06:02:56;1.20;;;1.10;;
35679;SDS011;21803;53.586;10.040;2023-07-29T06:05:22;1.45;;;1.35;;
35679;SDS011;21803;53.586;10.040;2023-07-29T06:07:47;1.42;;;1.20;;
35679;SDS011;21803;53.586;10.040;2023-07-29T06:10:14;2.05;;;1.20;;
35679;SDS011;21803;53.586;10.040;2023-07-29T06:12:43;1.35;;;1.25;;
35679;SDS011;21803;53.586;10.040;2023-07-29T06:15:09;1.20;;;1.10;;
35679;SDS011;21803;53.586;10.040;2023-07-29T06:17:35;1.70;;;1.40;;
35679;SDS011;21803;53.586;10.040;2023-07-29T06:20:00;1.75;;;1.40;;
35679;SDS011;21803;53.586;10.040;2023-07-29T06:22:26;1.35;;;1.25;;
35679;SDS011;21803;53.586;10.040;2023-07-29T06:24:51;1.50;;;1.40;;
35679;SDS011;21803;53.586;10.040;2023-07-29T06:27:17;1.50;;;1.40;;
35679;SDS011;21803;53.586;10.040;2023-07-29T06:29:42;1.38;;;1.27;;
35679;SDS011;21803;53.586;10.040;2023-07-29T06:32:08;1.45;;;1.30;;
35679;SDS011;21803;53.586;10.040;2023-07-29T06:34:34;1.85;;;1.42;;
35679;SDS011;21803;53.586;10.040;2023-07-29T06:36:59;1.60;;;1.50;;
35679;SDS011;21803;53.586;10.040;2023-07-29T06:39:25;1.70;;;1.50;;
35679;SDS011;21803;53.586;10.040;2023-07-29T06:41:50;1.75;;;1.55;;
35679;SDS011;21803;53.586;10.040;2023-07-29T06:44:16;1.50;;;1.40;;
35679;SDS011;21803;53.586;10.040;2023-07-29T06:46:41;1.60;;;1.40;;
35679;SDS011;21803;53.586;10.040;2023-07-29T06:49:07;1.38;;;1.20;;
35679;SDS011;21803;53.586;10.040;2023-07-29T06:51:32;1.60;;;1.45;;
35679;SDS011;21803;53.586;10.040;2023-07-29T06:54:00;1.40;;;1.30;;
35679;SDS011;21803;53.586;10.040;2023-07-29T06:56:26;1.70;;;1.38;;
35679;SDS011;21803;53.586;10.040;2023-07-29T06:58:51;1.70;;;1.60;;
35679;SDS011;21803;53.586;10.040;2023-07-29T07:01:17;1.77;;;1.50;;
35679;SDS011;21803;53.586;10.040;2023-07-29T07:03:43;1.65;;;1.55;;
35679;SDS011;21803;53.586;10.040;2023-07-29T07:06:08;1.50;;;1.40;;
35679;SDS011;21803;53.586;10.040;2023-07-29T07:08:34;1.85;;;1.60;;
35679;SDS011;21803;53.586;10.040;2023-07-29T07:10:59;1.50;;;1.40;;
35679;SDS011;21803;53.586;10.040;2023-07-29T07:13:25;1.90;;;1.58;;
35679;SDS011;21803;53.586;10.040;2023-07-29T07:15:53;2.15;;;1.45;;
35679;SDS011;21803;53.586;10.040;2023-07-29T07:18:20;2.03;;;1.48;;
35679;SDS011;21803;53.586;10.040;2023-07-29T07:20:48;1.80;;;1.42;;
35679;SDS011;21803;53.586;10.040;2023-07-29T07:23:14;1.55;;;1.42;;
35679;SDS011;21803;53.586;10.040;2023-07-29T07:25:40;1.50;;;1.40;;
35679;SDS011;21803;53.586;10.040;2023-07-29T07:28:07;1.70;;;1.40;;
35679;SDS011;21803;53.586;10.040;2023-07-29T07:30:33;1.75;;;1.45;;
35679;SDS011;21803;53.586;10.040;2023-07-29T07:32:58;1.42;;;1.33;;
35679;SDS011;21803;53.586;10.040;2023-07-29T07:35:24;1.67;;;1.42;;
35679;SDS011;21803;53.586;10.040;2023-07-29T07:37:49;1.50;;;1.40;;
35679;SDS011;21803;53.586;10.040;2023-07-29T07:40:15;1.50;;;1.40;;
35679;SDS011;21803;53.586;10.040;2023-07-29T07:42:40;1.65;;;1.40;;
35679;SDS011;21803;53.586;10.040;2023-07-29T07:45:06;1.70;;;1.60;;
35679;SDS011;21803;53.586;10.040;2023-07-29T07:47:32;2.17;;;1.70;;
35679;SDS011;21803;53.586;10.040;2023-07-29T07:49:57;1.60;;;1.45;;
35679;SDS011;21803;53.586;10.040;2023-07-29T07:52:23;1.48;;;1.38;;
35679;SDS011;21803;53.586;10.040;2023-07-29T07:54:52;1.95;;;1.52;;
35679;SDS011;21803;53.586;10.040;2023-07-29T07:57:18;2.00;;;1.67;;
35679;SDS011;21803;53.586;10.040;2023-07-29T07:59:45;1.67;;;1.50;;
35679;SDS011;21803;53.586;10.040;2023-07-29T08:02:10;1.50;;;1.40;;
35679;SDS011;21803;53.586;10.040;2023-07-29T08:04:36;1.60;;;1.38;;
35679;SDS011;21803;53.586;10.040;2023-07-29T08:07:01;1.60;;;1.42;;
35679;SDS011;21803;53.586;10.040;2023-07-29T08:09:27;1.65;;;1.55;;
35679;SDS011;21803;53.586;10.040;2023-07-29T08:11:52;1.70;;;1.50;;
35679;SDS011;21803;53.586;10.040;2023-07-29T08:14:18;1.80;;;1.42;;
35679;SDS011;21803;53.586;10.040;2023-07-29T08:16:43;1.92;;;1.67;;
35679;SDS011;21803;53.586;10.040;2023-07-29T08:19:09;1.63;;;1.45;;
35679;SDS011;21803;53.586;10.040;2023-07-29T08:21:35;1.50;;;1.40;;
35679;SDS011;21803;53.586;10.040;2023-07-29T08:24:00;1.77;;;1.67;;
35679;SDS011;21803;53.586;10.040;2023-07-29T08:26:26;1.58;;;1.45;;
35679;SDS011;21803;53.586;10.040;2023-07-29T08:28:51;1.63;;;1.48;;
35679;SDS011;21803;53.586;10.040;2023-07-29T08:31:17;2.35;;;1.52;;
35679;SDS011;21803;53.586;10.040;2023-07-29T08:33:42;1.48;;;1.30;;
35679;SDS011;21803;53.586;10.040;2023-07-29T08:36:08;1.67;;;1.55;;
35679;SDS011;21803;53.586;10.040;2023-07-29T08:38:33;1.90;;;1.50;;
35679;SDS011;21803;53.586;10.040;2023-07-29T08:43:44;1.45;;;1.35;;
35679;SDS011;21803;53.586;10.040;2023-07-29T08:46:21;1.67;;;1.55;;
35679;SDS011;21803;53.586;10.040;2023-07-29T08:48:46;1.35;;;1.25;;
35679;SDS011;21803;53.586;10.040;2023-07-29T08:51:12;1.42;;;1.33;;
35679;SDS011;21803;53.586;10.040;2023-07-29T08:53:39;1.50;;;1.40;;
35679;SDS011;21803;53.586;10.040;2023-07-29T08:56:05;1.83;;;1.50;;
35679;SDS011;21803;53.586;10.040;2023-07-29T08:58:32;1.60;;;1.50;;
35679;SDS011;21803;53.586;10.040;2023-07-29T09:00:58;1.60;;;1.50;;
35679;SDS011;21803;53.586;10.040;2023-07-29T09:03:23;1.30;;;1.20;;
35679;SDS011;21803;53.586;10.040;2023-07-29T09:05:49;1.60;;;1.50;;
35679;SDS011;21803;53.586;10.040;2023-07-29T09:08:15;1.63;;;1.52;;
35679;SDS011;21803;53.586;10.040;2023-07-29T09:10:41;1.50;;;1.40;;
35679;SDS011;21803;53.586;10.040;2023-07-29T09:13:07;1.92;;;1.73;;
35679;SDS011;21803;53.586;10.040;2023-07-29T09:15:33;1.75;;;1.52;;
35679;SDS011;21803;53.586;10.040;2023-07-29T09:18:08;1.60;;;1.50;;
35679;SDS011;21803;53.586;10.040;2023-07-29T09:20:41;1.60;;;1.50;;
35679;SDS011;21803;53.586;10.040;2023-07-29T09:23:07;1.83;;;1.60;;
35679;SDS011;21803;53.586;10.040;2023-07-29T09:25:37;2.15;;;1.67;;
35679;SDS011;21803;53.586;10.040;2023-07-29T09:28:10;1.50;;;1.40;;
35679;SDS011;21803;53.586;10.040;2023-07-29T09:30:38;1.67;;;1.50;;
35679;SDS011;21803;53.586;10.040;2023-07-29T09:33:13;1.58;;;1.48;;
35679;SDS011;21803;53.586;10.040;2023-07-29T09:35:39;1.67;;;1.25;;
35679;SDS011;21803;53.586;10.040;2023-07-29T09:38:05;1.52;;;1.42;;
35679;SDS011;21803;53.586;10.040;2023-07-29T09:40:37;1.40;;;1.30;;
35679;SDS011;21803;53.586;10.040;2023-07-29T09:43:04;1.70;;;1.60;;
35679;SDS011;21803;53.586;10.040;2023-07-29T09:45:32;1.50;;;1.33;;
35679;SDS011;21803;53.586;10.040;2023-07-29T09:47:58;2.38;;;1.48;;
35679;SDS011;21803;53.586;10.040;2023-07-29T09:50:24;2.08;;;1.67;;
35679;SDS011;21803;53.586;10.040;2023-07-29T09:52:51;1.73;;;1.48;;
35679;SDS011;21803;53.586;10.040;2023-07-29T09:55:18;1.70;;;1.60;;
35679;SDS011;21803;53.586;10.040;2023-07-29T09:57:45;1.50;;;1.40;;
35679;SDS011;21803;53.586;10.040;2023-07-29T10:00:11;2.00;;;1.60;;
35679;SDS011;21803;53.586;10.040;2023-07-29T10:02:42;1.98;;;1.70;;
35679;SDS011;21803;53.586;10.040;2023-07-29T10:05:09;1.50;;;1.40;;
35679;SDS011;21803;53.586;10.040;2023-07-29T10:07:36;1.30;;;1.20;;
35679;SDS011;21803;53.586;10.040;2023-07-29T10:10:03;1.70;;;1.60;;
35679;SDS011;21803;53.586;10.040;2023-07-29T10:12:30;1.75;;;1.50;;
35679;SDS011;21803;53.586;10.040;2023-07-29T10:15:00;1.70;;;1.50;;
35679;SDS011;21803;53.586;10.040;2023-07-29T10:17:30;1.92;;;1.50;;
35679;SDS011;21803;53.586;10.040;2023-07-29T10:19:58;1.65;;;1.52;;
35679;SDS011;21803;53.586;10.040;2023-07-29T10:22:25;1.48;;;1.38;;
35679;SDS011;21803;53.586;10.040;2023-07-29T10:25:04;2.05;;;1.77;;
35679;SDS011;21803;53.586;10.040;2023-07-29T10:27:42;1.30;;;1.20;;
35679;SDS011;21803;53.586;10.040;2023-07-29T10:30:12;1.65;;;1.55;;
35679;SDS011;21803;53.586;10.040;2023-07-29T10:32:38;1.40;;;1.30;;
35679;SDS011;21803;53.586;10.040;2023-07-29T10:35:06;1.50;;;1.40;;
35679;SDS011;21803;53.586;10.040;2023-07-29T10:37:32;1.67;;;1.42;;
35679;SDS011;21803;53.586;10.040;2023-07-29T10:39:58;1.70;;;1.50;;
35679;SDS011;21803;53.586;10.040;2023-07-29T10:42:23;1.60;;;1.50;;
35679;SDS011;21803;53.586;10.040;2023-07-29T10:44:50;1.50;;;1.40;;
35679;SDS011;21803;53.586;10.040;2023-07-29T10:47:22;1.52;;;1.40;;
35679;SDS011;21803;53.586;10.040;2023-07-29T10:49:51;1.55;;;1.40;;
35679;SDS011;21803;53.586;10.040;2023-07-29T10:52:28;1.92;;;1.55;;
35679;SDS011;21803;53.586;10.040;2023-07-29T10:54:55;2.03;;;1.50;;
35679;SDS011;21803;53.586;10.040;2023-07-29T10:57:31;1.40;;;1.30;;
35679;SDS011;21803;53.586;10.040;2023-07-29T10:59:57;1.83;;;1.60;;
35679;SDS011;21803;53.586;10.040;2023-07-29T11:02:28;1.70;;;1.60;;
35679;SDS011;21803;53.586;10.040;2023-07-29T11:04:55;1.73;;;1.63;;
35679;SDS011;21803;53.586;10.040;2023-07-29T11:07:21;1.60;;;1.50;;
35679;SDS011;21803;53.586;10.040;2023-07-29T11:09:58;1.73;;;1.50;;
35679;SDS011;21803;53.586;10.040;2023-07-29T11:15:03;1.63;;;1.48;;
35679;SDS011;21803;53.586;10.040;2023-07-29T11:17:41;2.13;;;1.70;;
35679;SDS011;21803;53.586;10.040;2023-07-29T11:20:14;1.70;;;1.60;;
35679;SDS011;21803;53.586;10.040;2023-07-29T11:22:41;1.92;;;1.80;;
35679;SDS011;21803;53.586;10.040;2023-07-29T11:25:08;1.70;;;1.50;;
35679;SDS011;21803;53.586;10.040;2023-07-29T11:27:35;1.40;;;1.30;;
35679;SDS011;21803;53.586;10.040;2023-07-29T11:30:04;1.60;;;1.50;;
35679;SDS011;21803;53.586;10.040;2023-07-29T11:32:33;1.65;;;1.55;;
35679;SDS011;21803;53.586;10.040;2023-07-29T11:35:07;2.00;;;1.63;;
35679;SDS011;21803;53.586;10.040;2023-07-29T11:37:35;1.90;;;1.70;;
35679;SDS011;21803;53.586;10.040;2023-07-29T11:40:01;1.75;;;1.50;;
35679;SDS011;21803;53.586;10.040;2023-07-29T11:42:27;1.75;;;1.40;;
35679;SDS011;21803;53.586;10.040;2023-07-29T11:44:56;1.92;;;1.58;;
35679;SDS011;21803;53.586;10.040;2023-07-29T11:47:23;1.90;;;1.50;;
35679;SDS011;21803;53.586;10.040;2023-07-29T11:49:48;1.33;;;1.23;;
35679;SDS011;21803;53.586;10.040;2023-07-29T11:52:14;1.50;;;1.40;;
35679;SDS011;21803;53.586;10.040;2023-07-29T11:54:43;1.75;;;1.50;;
35679;SDS011;21803;53.586;10.040;2023-07-29T11:57:09;1.70;;;1.60;;
35679;SDS011;21803;53.586;10.040;2023-07-29T11:59:35;1.75;;;1.45;;
35679;SDS011;21803;53.586;10.040;2023-07-29T12:02:05;1.50;;;1.40;;
35679;SDS011;21803;53.586;10.040;2023-07-29T12:04:34;1.40;;;1.30;;
35679;SDS011;21803;53.586;10.040;2023-07-29T12:07:01;1.52;;;1.42;;
35679;SDS011;21803;53.586;10.040;2023-07-29T12:09:27;1.65;;;1.55;;
35679;SDS011;21803;53.586;10.040;2023-07-29T12:11:53;1.27;;;1.13;;
35679;SDS011;21803;53.586;10.040;2023-07-29T12:14:19;1.50;;;1.33;;
35679;SDS011;21803;53.586;10.040;2023-07-29T12:16:47;1.60;;;1.50;;
35679;SDS011;21803;53.586;10.040;2023-07-29T12:19:14;1.50;;;1.40;;
35679;SDS011;21803;53.586;10.040;2023-07-29T12:21:41;1.48;;;1.38;;
35679;SDS011;21803;53.586;10.040;2023-07-29T12:24:07;1.63;;;1.52;;
35679;SDS011;21803;53.586;10.040;2023-07-29T12:26:33;1.52;;;1.42;;
35679;SDS011;21803;53.586;10.040;2023-07-29T12:29:10;1.60;;;1.50;;
35679;SDS011;21803;53.586;10.040;2023-07-29T12:31:37;1.55;;;1.45;;
35679;SDS011;21803;53.586;10.040;2023-07-29T12:34:03;2.25;;;1.33;;
35679;SDS011;21803;53.586;10.040;2023-07-29T12:36:41;1.60;;;1.50;;
35679;SDS011;21803;53.586;10.040;2023-07-29T12:39:18;1.50;;;1.20;;
35679;SDS011;21803;53.586;10.040;2023-07-29T12:41:45;1.30;;;1.20;;
35679;SDS011;21803;53.586;10.040;2023-07-29T12:44:12;1.63;;;1.52;;
35679;SDS011;21803;53.586;10.040;2023-07-29T12:46:37;1.27;;;1.05;;
35679;SDS011;21803;53.586;10.040;2023-07-29T12:49:03;1.77;;;1.50;;
35679;SDS011;21803;53.586;10.040;2023-07-29T12:51:29;1.42;;;1.33;;
35679;SDS011;21803;53.586;10.040;2023-07-29T12:53:54;1.73;;;1.52;;
35679;SDS011;21803;53.586;10.040;2023-07-29T12:56:20;1.63;;;1.52;;
35679;SDS011;21803;53.586;10.040;2023-07-29T12:58:45;1.45;;;1.17;;
35679;SDS011;21803;53.586;10.040;2023-07-29T13:01:11;1.35;;;1.25;;
35679;SDS011;21803;53.586;10.040;2023-07-29T13:03:42;2.33;;;1.50;;
35679;SDS011;21803;53.586;10.040;2023-07-29T13:06:07;1.40;;;1.30;;
35679;SDS011;21803;53.586;10.040;2023-07-29T13:08:33;1.33;;;1.23;;
35679;SDS011;21803;53.586;10.040;2023-07-29T13:10:58;1.20;;;1.10;;
35679;SDS011;21803;53.586;10.040;2023-07-29T13:13:24;1.45;;;1.13;;
35679;SDS011;21803;53.586;10.040;2023-07-29T13:15:49;1.58;;;1.30;;
35679;SDS011;21803;53.586;10.040;2023-07-29T13:18:15;1.23;;;1.13;;
35679;SDS011;21803;53.586;10.040;2023-07-29T13:20:41;1.45;;;1.30;;
35679;SDS011;21803;53.586;10.040;2023-07-29T13:23:06;1.30;;;1.20;;
35679;SDS011;21803;53.586;10.040;2023-07-29T13:25:32;1.20;;;1.10;;
35679;SDS011;21803;53.586;10.040;2023-07-29T13:27:57;1.33;;;1.23;;
35679;SDS011;21803;53.586;10.040;2023-07-29T13:30:23;1.48;;;1.33;;
35679;SDS011;21803;53.586;10.040;2023-07-29T13:32:49;1.80;;;1.50;;
35679;SDS011;21803;53.586;10.040;2023-07-29T13:35:14;1.50;;;1.15;;
35679;SDS011;21803;53.586;10.040;2023-07-29T13:37:40;1.30;;;1.20;;
35679;SDS011;21803;53.586;10.040;2023-07-29T13:40:05;1.50;;;1.40;;
35679;SDS011;21803;53.586;10.040;2023-07-29T13:42:31;1.45;;;1.23;;
35679;SDS011;21803;53.586;10.040;2023-07-29T13:44:57;1.33;;;1.23;;
35679;SDS011;21803;53.586;10.040;2023-07-29T13:47:22;1.20;;;1.10;;
35679;SDS011;21803;53.586;10.040;2023-07-29T13:49:48;1.33;;;1.20;;
35679;SDS011;21803;53.586;10.040;2023-07-29T13:52:13;1.17;;;1.08;;
35679;SDS011;21803;53.586;10.040;2023-07-29T13:54:40;1.25;;;1.13;;
35679;SDS011;21803;53.586;10.040;2023-07-29T13:57:05;1.40;;;1.25;;
35679;SDS011;21803;53.586;10.040;2023-07-29T13:59:31;1.55;;;1.35;;
35679;SDS011;21803;53.586;10.040;2023-07-29T14:01:57;2.50;;;1.30;;
35679;SDS011;21803;53.586;10.040;2023-07-29T14:04:23;1.55;;;1.33;;
35679;SDS011;21803;53.586;10.040;2023-07-29T14:06:48;1.23;;;1.13;;
35679;SDS011;21803;53.586;10.040;2023-07-29T14:09:14;1.20;;;1.10;;
35679;SDS011;21803;53.586;10.040;2023-07-29T14:11:39;1.17;;;1.08;;
35679;SDS011;21803;53.586;10.040;2023-07-29T14:14:05;1.20;;;1.10;;
35679;SDS011;21803;53.586;10.040;2023-07-29T14:16:31;1.27;;;1.17;;
35679;SDS011;21803;53.586;10.040;2023-07-29T14:18:57;1.40;;;1.02;;
35679;SDS011;21803;53.586;10.040;2023-07-29T14:21:22;1.52;;;1.00;;
35679;SDS011;21803;53.586;10.040;2023-07-29T14:23:48;1.10;;;1.00;;
35679;SDS011;21803;53.586;10.040;2023-07-29T14:26:13;1.10;;;1.00;;
35679;SDS011;21803;53.586;10.040;2023-07-29T14:28:39;1.23;;;1.13;;
35679;SDS011;21803;53.586;10.040;2023-07-29T14:31:04;1.30;;;1.20;;
35679;SDS011;21803;53.586;10.040;2023-07-29T14:33:29;1.17;;;1.05;;
35679;SDS011;21803;53.586;10.040;2023-07-29T14:35:55;1.13;;;1.02;;
35679;SDS011;21803;53.586;10.040;2023-07-29T14:38:21;1.30;;;1.00;;
35679;SDS011;21803;53.586;10.040;2023-07-29T14:40:47;1.10;;;1.00;;
35679;SDS011;21803;53.586;10.040;2023-07-29T14:43:13;1.20;;;1.10;;
35679;SDS011;21803;53.586;10.040;2023-07-29T14:45:39;0.90;;;0.90;;
35679;SDS011;21803;53.586;10.040;2023-07-29T14:48:04;0.90;;;0.85;;
35679;SDS011;21803;53.586;10.040;2023-07-29T14:50:30;1.10;;;1.00;;
35679;SDS011;21803;53.586;10.040;2023-07-29T14:52:56;1.67;;;1.20;;
35679;SDS011;21803;53.586;10.040;2023-07-29T14:55:21;1.10;;;1.00;;
35679;SDS011;21803;53.586;10.040;2023-07-29T14:57:47;1.15;;;0.98;;
35679;SDS011;21803;53.586;10.040;2023-07-29T15:00:12;1.20;;;1.10;;
35679;SDS011;21803;53.586;10.040;2023-07-29T15:02:40;1.00;;;0.90;;
35679;SDS011;21803;53.586;10.040;2023-07-29T15:05:06;0.90;;;0.80;;
35679;SDS011;21803;53.586;10.040;2023-07-29T15:07:32;1.08;;;0.98;;
35679;SDS011;21803;53.586;10.040;2023-07-29T15:09:58;0.98;;;0.88;;
35679;SDS011;21803;53.586;10.040;2023-07-29T15:12:23;1.00;;;0.90;;
35679;SDS011;21803;53.586;10.040;2023-07-29T15:14:49;1.20;;;1.00;;
35679;SDS011;21803;53.586;10.040;2023-07-29T15:17:15;1.10;;;1.00;;
35679;SDS011;21803;53.586;10.040;2023-07-29T15:19:40;1.00;;;0.90;;
35679;SDS011;21803;53.586;10.040;2023-07-29T15:22:06;0.90;;;0.90;;
35679;SDS011;21803;53.586;10.040;2023-07-29T15:24:31;1.00;;;0.90;;
35679;SDS011;21803;53.586;10.040;2023-07-29T15:26:57;0.90;;;0.90;;
35679;SDS011;21803;53.586;10.040;2023-07-29T15:29:22;0.98;;;0.93;;
35679;SDS011;21803;53.586;10.040;2023-07-29T15:31:48;1.02;;;0.90;;
35679;SDS011;21803;53.586;10.040;2023-07-29T15:34:13;1.25;;;0.90;;
35679;SDS011;21803;53.586;10.040;2023-07-29T15:36:39;1.08;;;0.93;;
35679;SDS011;21803;53.586;10.040;2023-07-29T15:39:04;1.40;;;1.00;;
35679;SDS011;21803;53.586;10.040;2023-07-29T15:41:31;1.10;;;1.00;;
35679;SDS011;21803;53.586;10.040;2023-07-29T15:43:58;1.10;;;1.00;;
35679;SDS011;21803;53.586;10.040;2023-07-29T15:46:24;2.20;;;1.00;;
35679;SDS011;21803;53.586;10.040;2023-07-29T15:48:49;1.10;;;1.00;;
35679;SDS011;21803;53.586;10.040;2023-07-29T15:51:15;1.45;;;1.15;;
35679;SDS011;21803;53.586;10.040;2023-07-29T15:53:40;1.13;;;0.90;;
35679;SDS011;21803;53.586;10.040;2023-07-29T15:56:06;0.85;;;0.82;;
35679;SDS011;21803;53.586;10.040;2023-07-29T15:58:31;1.85;;;1.00;;
35679;SDS011;21803;53.586;10.040;2023-07-29T16:00:57;1.10;;;1.00;;
35679;SDS011;21803;53.586;10.040;2023-07-29T16:03:23;1.17;;;1.08;;
35679;SDS011;21803;53.586;10.040;2023-07-29T16:05:48;1.10;;;1.00;;
35679;SDS011;21803;53.586;10.040;2023-07-29T16:08:14;1.23;;;0.73;;
35679;SDS011;21803;53.586;10.040;2023-07-29T16:10:40;1.13;;;0.90;;
35679;SDS011;21803;53.586;10.040;2023-07-29T16:13:05;0.88;;;0.88;;
35679;SDS011;21803;53.586;10.040;2023-07-29T16:15:31;0.98;;;0.88;;
35679;SDS011;21803;53.586;10.040;2023-07-29T16:17:57;1.25;;;1.10;;
35679;SDS011;21803;53.586;10.040;2023-07-29T16:20:24;0.98;;;0.80;;
35679;SDS011;21803;53.586;10.040;2023-07-29T16:22:50;1.17;;;0.80;;
35679;SDS011;21803;53.586;10.040;2023-07-29T16:25:16;1.23;;;1.00;;
35679;SDS011;21803;53.586;10.040;2023-07-29T16:27:42;0.80;;;0.80;;
35679;SDS011;21803;53.586;10.040;2023-07-29T16:30:07;1.00;;;0.90;;
35679;SDS011;21803;53.586;10.040;2023-07-29T16:32:33;1.13;;;1.02;;
35679;SDS011;21803;53.586;10.040;2023-07-29T16:34:59;0.93;;;0.90;;
35679;SDS011;21803;53.586;10.040;2023-07-29T16:37:25;1.08;;;0.98;;
35679;SDS011;21803;53.586;10.040;2023-07-29T16:39:50;0.70;;;0.70;;
35679;SDS011;21803;53.586;10.040;2023-07-29T16:42:16;1.10;;;1.00;;
35679;SDS011;21803;53.586;10.040;2023-07-29T16:44:41;1.13;;;0.90;;
35679;SDS011;21803;53.586;10.040;2023-07-29T16:47:07;1.00;;;0.90;;
35679;SDS011;21803;53.586;10.040;2023-07-29T16:49:32;1.20;;;0.95;;
35679;SDS011;21803;53.586;10.040;2023-07-29T16:51:58;1.00;;;0.90;;
35679;SDS011;21803;53.586;10.040;2023-07-29T16:54:23;0.90;;;0.90;;
35679;SDS011;21803;53.586;10.040;2023-07-29T16:56:49;1.27;;;0.90;;
35679;SDS011;21803;53.586;10.040;2023-07-29T16:59:16;1.13;;;0.80;;
35679;SDS011;21803;53.586;10.040;2023-07-29T17:01:41;1.13;;;0.95;;
35679;SDS011;21803;53.586;10.040;2023-07-29T17:04:07;0.80;;;0.80;;
35679;SDS011;21803;53.586;10.040;2023-07-29T17:06:33;1.20;;;0.90;;
35679;SDS011;21803;53.586;10.040;2023-07-29T17:08:58;0.80;;;0.80;;
35679;SDS011;21803;53.586;10.040;2023-07-29T17:11:24;0.90;;;0.80;;
35679;SDS011;21803;53.586;10.040;2023-07-29T17:13:49;0.98;;;0.90;;
35679;SDS011;21803;53.586;10.040;2023-07-29T17:16:15;1.08;;;0.98;;
35679;SDS011;21803;53.586;10.040;2023-07-29T17:18:41;1.20;;;0.90;;
35679;SDS011;21803;53.586;10.040;2023-07-29T17:21:07;1.00;;;0.90;;
35679;SDS011;21803;53.586;10.040;2023-07-29T17:23:32;1.25;;;1.00;;
35679;SDS011;21803;53.586;10.040;2023-07-29T17:25:58;1.00;;;0.90;;
35679;SDS011;21803;53.586;10.040;2023-07-29T17:28:24;0.93;;;0.80;;
35679;SDS011;21803;53.586;10.040;2023-07-29T17:30:50;1.02;;;0.90;;
35679;SDS011;21803;53.586;10.040;2023-07-29T17:33:16;0.90;;;0.70;;
35679;SDS011;21803;53.586;10.040;2023-07-29T17:35:42;0.80;;;0.80;;
35679;SDS011;21803;53.586;10.040;2023-07-29T17:38:08;1.33;;;1.00;;
35679;SDS011;21803;53.586;10.040;2023-07-29T17:40:34;1.15;;;1.00;;
35679;SDS011;21803;53.586;10.040;2023-07-29T17:43:00;1.23;;;1.05;;
35679;SDS011;21803;53.586;10.040;2023-07-29T17:45:26;1.13;;;1.00;;
35679;SDS011;21803;53.586;10.040;2023-07-29T17:47:52;0.90;;;0.70;;
35679;SDS011;21803;53.586;10.040;2023-07-29T17:50:18;1.00;;;0.90;;
35679;SDS011;21803;53.586;10.040;2023-07-29T17:52:44;0.95;;;0.85;;
35679;SDS011;21803;53.586;10.040;2023-07-29T17:55:10;2.00;;;0.98;;
35679;SDS011;21803;53.586;10.040;2023-07-29T17:57:36;1.15;;;0.95;;
35679;SDS011;21803;53.586;10.040;2023-07-29T18:00:02;1.67;;;0.95;;
35679;SDS011;21803;53.586;10.040;2023-07-29T18:02:30;0.82;;;0.75;;
35679;SDS011;21803;53.586;10.040;2023-07-29T18:04:56;0.82;;;0.80;;
35679;SDS011;21803;53.586;10.040;2023-07-29T18:07:23;1.13;;;0.90;;
35679;SDS011;21803;53.586;10.040;2023-07-29T18:09:49;1.00;;;0.90;;
35679;SDS011;21803;53.586;10.040;2023-07-29T18:12:14;0.55;;;0.55;;
35679;SDS011;21803;53.586;10.040;2023-07-29T18:14:40;1.00;;;0.90;;
35679;SDS011;21803;53.586;10.040;2023-07-29T18:17:05;1.10;;;0.90;;
35679;SDS011;21803;53.586;10.040;2023-07-29T18:19:31;0.88;;;0.88;;
35679;SDS011;21803;53.586;10.040;2023-07-29T18:21:57;1.52;;;0.98;;
35679;SDS011;21803;53.586;10.040;2023-07-29T18:24:23;0.77;;;0.77;;
35679;SDS011;21803;53.586;10.040;2023-07-29T18:26:49;1.35;;;0.90;;
35679;SDS011;21803;53.586;10.040;2023-07-29T18:29:14;1.15;;;1.05;;
35679;SDS011;21803;53.586;10.040;2023-07-29T18:31:40;0.80;;;0.80;;
35679;SDS011;21803;53.586;10.040;2023-07-29T18:34:05;1.00;;;0.90;;